sensor_id;sensor_type;location;lat;lon;timestamp;P1;durP1;ratioP1;P2;durP2;ratioP2
77076;SDS011;66003;52.286;104.306;2023-07-24T09:46:44;2.95;;;1.63;;
77076;SDS011;66003;52.286;104.306;2023-07-24T09:49:10;1.70;;;0.57;;
77076;SDS011;66003;52.286;104.306;2023-07-24T09:51:37;5.13;;;0.90;;
77076;SDS011;66003;52.286;104.306;2023-07-24T09:54:06;1.50;;;0.82;;
77076;SDS011;66003;52.286;104.306;2023-07-24T09:56:40;3.83;;;1.15;;
77076;SDS011;66003;52.286;104.306;2023-07-24T09:59:07;3.53;;;1.00;;
77076;SDS011;66003;52.286;104.306;2023-07-24T10:01:36;4.43;;;1.20;;
77076;SDS011;66003;52.286;104.306;2023-07-24T10:04:03;2.40;;;1.33;;
77076;SDS011;66003;52.286;104.306;2023-07-24T10:06:30;3.55;;;1.50;;
77076;SDS011;66003;52.286;104.306;2023-07-24T10:08:57;3.33;;;1.23;;
77076;SDS011;66003;52.286;104.306;2023-07-24T10:11:24;2.53;;;1.30;;
77076;SDS011;66003;52.286;104.306;2023-07-24T10:13:52;2.17;;;1.10;;
77076;SDS011;66003;52.286;104.306;2023-07-24T10:16:19;2.70;;;0.82;;
77076;SDS011;66003;52.286;104.306;2023-07-24T10:18:46;3.40;;;1.42;;
77076;SDS011;66003;52.286;104.306;2023-07-24T10:21:13;4.95;;;1.23;;
77076;SDS011;66003;52.286;104.306;2023-07-24T10:23:44;2.60;;;1.23;;
77076;SDS011;66003;52.286;104.306;2023-07-24T10:26:14;2.75;;;1.60;;
77076;SDS011;66003;52.286;104.306;2023-07-24T10:32:18;2.83;;;1.13;;
77076;SDS011;66003;52.286;104.306;2023-07-24T10:34:45;3.35;;;1.85;;
77076;SDS011;66003;52.286;104.306;2023-07-24T10:37:20;4.10;;;1.65;;
77076;SDS011;66003;52.286;104.306;2023-07-24T10:39:57;5.13;;;1.50;;
77076;SDS011;66003;52.286;104.306;2023-07-24T10:42:23;4.53;;;1.83;;
77076;SDS011;66003;52.286;104.306;2023-07-24T10:44:49;4.20;;;1.40;;
77076;SDS011;66003;52.286;104.306;2023-07-24T10:47:26;4.55;;;1.77;;
77076;SDS011;66003;52.286;104.306;2023-07-24T10:49:52;9.43;;;3.30;;
77076;SDS011;66003;52.286;104.306;2023-07-24T10:52:26;2.20;;;0.93;;
77076;SDS011;66003;52.286;104.306;2023-07-24T10:54:53;2.90;;;1.20;;
77076;SDS011;66003;52.286;104.306;2023-07-24T10:57:24;13.68;;;3.55;;
77076;SDS011;66003;52.286;104.306;2023-07-24T10:59:52;5.30;;;3.63;;
77076;SDS011;66003;52.286;104.306;2023-07-24T11:02:18;4.53;;;1.23;;
77076;SDS011;66003;52.286;104.306;2023-07-24T11:04:44;5.85;;;1.20;;
77076;SDS011;66003;52.286;104.306;2023-07-24T11:07:12;3.58;;;1.27;;
77076;SDS011;66003;52.286;104.306;2023-07-24T11:09:40;3.78;;;1.30;;
77076;SDS011;66003;52.286;104.306;2023-07-24T11:12:13;6.82;;;1.33;;
77076;SDS011;66003;52.286;104.306;2023-07-24T11:14:51;4.95;;;1.33;;
77076;SDS011;66003;52.286;104.306;2023-07-24T11:17:21;3.33;;;1.45;;
77076;SDS011;66003;52.286;104.306;2023-07-24T11:19:47;1.70;;;1.02;;
77076;SDS011;66003;52.286;104.306;2023-07-24T11:22:13;1.95;;;1.10;;
77076;SDS011;66003;52.286;104.306;2023-07-24T11:24:46;3.72;;;1.17;;
77076;SDS011;66003;52.286;104.306;2023-07-24T11:27:13;4.43;;;1.33;;
77076;SDS011;66003;52.286;104.306;2023-07-24T11:29:41;4.25;;;1.20;;
77076;SDS011;66003;52.286;104.306;2023-07-24T11:32:12;4.57;;;1.20;;
77076;SDS011;66003;52.286;104.306;2023-07-24T11:34:38;4.25;;;1.35;;
77076;SDS011;66003;52.286;104.306;2023-07-24T11:37:05;3.25;;;1.40;;
77076;SDS011;66003;52.286;104.306;2023-07-24T11:39:31;3.90;;;1.70;;
77076;SDS011;66003;52.286;104.306;2023-07-24T11:41:58;4.80;;;1.13;;
77076;SDS011;66003;52.286;104.306;2023-07-24T11:44:27;3.30;;;1.50;;
77076;SDS011;66003;52.286;104.306;2023-07-24T11:47:03;4.85;;;1.85;;
77076;SDS011;66003;52.286;104.306;2023-07-24T11:49:30;2.22;;;1.10;;
77076;SDS011;66003;52.286;104.306;2023-07-24T11:52:04;4.22;;;1.45;;
77076;SDS011;66003;52.286;104.306;2023-07-24T11:54:35;2.15;;;1.10;;
77076;SDS011;66003;52.286;104.306;2023-07-24T11:57:01;3.92;;;1.35;;
77076;SDS011;66003;52.286;104.306;2023-07-24T11:59:36;3.92;;;1.73;;
77076;SDS011;66003;52.286;104.306;2023-07-24T12:02:05;4.05;;;1.38;;
77076;SDS011;66003;52.286;104.306;2023-07-24T12:04:31;2.55;;;1.10;;
77076;SDS011;66003;52.286;104.306;2023-07-24T12:06:57;2.50;;;1.30;;
77076;SDS011;66003;52.286;104.306;2023-07-24T12:09:28;2.92;;;1.48;;
77076;SDS011;66003;52.286;104.306;2023-07-24T12:11:58;1.63;;;0.93;;
77076;SDS011;66003;52.286;104.306;2023-07-24T12:14:25;2.10;;;0.90;;
77076;SDS011;66003;52.286;104.306;2023-07-24T12:17:00;3.55;;;3.25;;
77076;SDS011;66003;52.286;104.306;2023-07-24T12:19:35;2.35;;;1.05;;
77076;SDS011;66003;52.286;104.306;2023-07-24T12:22:01;4.05;;;1.40;;
77076;SDS011;66003;52.286;104.306;2023-07-24T12:24:29;2.60;;;1.20;;
77076;SDS011;66003;52.286;104.306;2023-07-24T12:26:55;3.47;;;1.65;;
77076;SDS011;66003;52.286;104.306;2023-07-24T12:29:21;2.75;;;1.45;;
77076;SDS011;66003;52.286;104.306;2023-07-24T12:31:47;3.38;;;1.83;;
77076;SDS011;66003;52.286;104.306;2023-07-24T12:34:13;4.68;;;1.75;;
77076;SDS011;66003;52.286;104.306;2023-07-24T12:36:40;2.15;;;1.38;;
77076;SDS011;66003;52.286;104.306;2023-07-24T12:39:06;3.58;;;3.28;;
77076;SDS011;66003;52.286;104.306;2023-07-24T12:41:32;3.55;;;3.13;;
77076;SDS011;66003;52.286;104.306;2023-07-24T12:43:58;3.60;;;1.10;;
77076;SDS011;66003;52.286;104.306;2023-07-24T12:46:25;5.03;;;1.35;;
77076;SDS011;66003;52.286;104.306;2023-07-24T12:49:03;3.80;;;1.33;;
77076;SDS011;66003;52.286;104.306;2023-07-24T12:51:30;2.80;;;1.50;;
77076;SDS011;66003;52.286;104.306;2023-07-24T12:53:56;5.47;;;1.42;;
77076;SDS011;66003;52.286;104.306;2023-07-24T12:56:22;4.70;;;3.65;;
77076;SDS011;66003;52.286;104.306;2023-07-24T12:58:49;3.20;;;1.73;;
77076;SDS011;66003;52.286;104.306;2023-07-24T13:01:15;4.15;;;1.52;;
77076;SDS011;66003;52.286;104.306;2023-07-24T13:03:41;5.00;;;2.25;;
77076;SDS011;66003;52.286;104.306;2023-07-24T13:06:08;7.80;;;2.55;;
77076;SDS011;66003;52.286;104.306;2023-07-24T13:08:34;8.25;;;2.75;;
77076;SDS011;66003;52.286;104.306;2023-07-24T13:11:00;7.05;;;1.95;;
77076;SDS011;66003;52.286;104.306;2023-07-24T13:13:27;5.47;;;2.85;;
77076;SDS011;66003;52.286;104.306;2023-07-24T13:15:53;8.23;;;2.30;;
77076;SDS011;66003;52.286;104.306;2023-07-24T13:18:19;12.73;;;4.80;;
77076;SDS011;66003;52.286;104.306;2023-07-24T13:20:45;11.43;;;4.75;;
77076;SDS011;66003;52.286;104.306;2023-07-24T13:23:11;11.48;;;4.32;;
77076;SDS011;66003;52.286;104.306;2023-07-24T13:25:38;13.35;;;5.15;;
77076;SDS011;66003;52.286;104.306;2023-07-24T13:28:04;8.65;;;4.88;;
77076;SDS011;66003;52.286;104.306;2023-07-24T13:30:30;14.75;;;5.63;;
77076;SDS011;66003;52.286;104.306;2023-07-24T13:32:56;14.20;;;7.10;;
77076;SDS011;66003;52.286;104.306;2023-07-24T13:35:23;14.52;;;8.27;;
77076;SDS011;66003;52.286;104.306;2023-07-24T13:37:49;10.80;;;6.68;;
77076;SDS011;66003;52.286;104.306;2023-07-24T13:40:15;18.80;;;7.00;;
77076;SDS011;66003;52.286;104.306;2023-07-24T13:42:41;15.82;;;8.82;;
77076;SDS011;66003;52.286;104.306;2023-07-24T13:45:07;14.38;;;7.07;;
77076;SDS011;66003;52.286;104.306;2023-07-24T13:47:34;19.00;;;9.70;;
77076;SDS011;66003;52.286;104.306;2023-07-24T13:50:00;16.65;;;7.43;;
77076;SDS011;66003;52.286;104.306;2023-07-24T13:52:29;15.25;;;9.52;;
77076;SDS011;66003;52.286;104.306;2023-07-24T13:54:55;15.95;;;7.50;;
77076;SDS011;66003;52.286;104.306;2023-07-24T13:57:22;14.80;;;8.25;;
77076;SDS011;66003;52.286;104.306;2023-07-24T13:59:48;21.58;;;8.18;;
77076;SDS011;66003;52.286;104.306;2023-07-24T14:02:15;13.27;;;7.15;;
77076;SDS011;66003;52.286;104.306;2023-07-24T14:04:41;20.40;;;11.88;;
77076;SDS011;66003;52.286;104.306;2023-07-24T14:07:08;22.70;;;10.35;;
77076;SDS011;66003;52.286;104.306;2023-07-24T14:09:35;16.90;;;8.10;;
77076;SDS011;66003;52.286;104.306;2023-07-24T14:12:01;10.13;;;6.05;;
77076;SDS011;66003;52.286;104.306;2023-07-24T14:14:28;8.13;;;4.50;;
77076;SDS011;66003;52.286;104.306;2023-07-24T14:16:54;8.60;;;4.35;;
77076;SDS011;66003;52.286;104.306;2023-07-24T14:19:21;5.40;;;3.30;;
77076;SDS011;66003;52.286;104.306;2023-07-24T14:21:49;7.20;;;4.45;;
77076;SDS011;66003;52.286;104.306;2023-07-24T14:24:15;10.90;;;5.40;;
77076;SDS011;66003;52.286;104.306;2023-07-24T14:26:42;10.43;;;5.70;;
77076;SDS011;66003;52.286;104.306;2023-07-24T14:29:10;14.90;;;6.28;;
77076;SDS011;66003;52.286;104.306;2023-07-24T14:31:37;11.98;;;5.55;;
77076;SDS011;66003;52.286;104.306;2023-07-24T14:34:04;12.18;;;5.93;;
77076;SDS011;66003;52.286;104.306;2023-07-24T14:36:36;13.40;;;6.63;;
77076;SDS011;66003;52.286;104.306;2023-07-24T14:39:03;11.23;;;6.50;;
77076;SDS011;66003;52.286;104.306;2023-07-24T14:41:30;9.40;;;5.68;;
77076;SDS011;66003;52.286;104.306;2023-07-24T14:43:56;12.40;;;5.90;;
77076;SDS011;66003;52.286;104.306;2023-07-24T14:46:23;10.93;;;7.03;;
77076;SDS011;66003;52.286;104.306;2023-07-24T14:48:49;11.18;;;5.55;;
77076;SDS011;66003;52.286;104.306;2023-07-24T14:51:15;16.00;;;6.22;;
77076;SDS011;66003;52.286;104.306;2023-07-24T14:56:07;13.80;;;6.80;;
77076;SDS011;66003;52.286;104.306;2023-07-24T14:58:33;11.95;;;6.85;;
77076;SDS011;66003;52.286;104.306;2023-07-24T15:03:25;5.32;;;3.33;;
77076;SDS011;66003;52.286;104.306;2023-07-24T15:08:17;12.27;;;5.25;;
77076;SDS011;66003;52.286;104.306;2023-07-24T15:13:09;7.85;;;6.70;;
77076;SDS011;66003;52.286;104.306;2023-07-24T15:15:36;9.02;;;7.15;;
77076;SDS011;66003;52.286;104.306;2023-07-24T15:18:02;6.15;;;3.33;;
77076;SDS011;66003;52.286;104.306;2023-07-24T15:20:28;9.27;;;5.15;;
77076;SDS011;66003;52.286;104.306;2023-07-24T15:22:54;6.22;;;3.45;;
77076;SDS011;66003;52.286;104.306;2023-07-24T15:27:46;9.13;;;3.63;;
77076;SDS011;66003;52.286;104.306;2023-07-24T15:32:38;5.03;;;2.78;;
77076;SDS011;66003;52.286;104.306;2023-07-24T15:37:31;6.88;;;2.28;;
77076;SDS011;66003;52.286;104.306;2023-07-24T15:42:25;5.43;;;2.88;;
77076;SDS011;66003;52.286;104.306;2023-07-24T15:44:52;8.25;;;2.95;;
77076;SDS011;66003;52.286;104.306;2023-07-24T15:47:19;4.60;;;3.05;;
77076;SDS011;66003;52.286;104.306;2023-07-24T15:49:45;3.63;;;2.75;;
77076;SDS011;66003;52.286;104.306;2023-07-24T15:52:11;5.15;;;3.28;;
77076;SDS011;66003;52.286;104.306;2023-07-24T15:54:37;7.90;;;3.63;;
77076;SDS011;66003;52.286;104.306;2023-07-24T15:57:04;4.75;;;2.80;;
77076;SDS011;66003;52.286;104.306;2023-07-24T15:59:30;5.18;;;2.90;;
77076;SDS011;66003;52.286;104.306;2023-07-24T16:04:22;5.72;;;2.90;;
77076;SDS011;66003;52.286;104.306;2023-07-24T16:06:48;5.03;;;2.45;;
77076;SDS011;66003;52.286;104.306;2023-07-24T16:09:14;5.10;;;2.90;;
77076;SDS011;66003;52.286;104.306;2023-07-24T16:11:40;4.57;;;2.47;;
77076;SDS011;66003;52.286;104.306;2023-07-24T16:16:32;4.20;;;2.03;;
77076;SDS011;66003;52.286;104.306;2023-07-24T16:21:44;3.85;;;2.28;;
77076;SDS011;66003;52.286;104.306;2023-07-24T16:24:11;4.65;;;3.00;;
77076;SDS011;66003;52.286;104.306;2023-07-24T16:26:38;4.32;;;2.28;;
77076;SDS011;66003;52.286;104.306;2023-07-24T16:29:05;5.80;;;3.03;;
77076;SDS011;66003;52.286;104.306;2023-07-24T16:31:32;4.32;;;2.42;;
77076;SDS011;66003;52.286;104.306;2023-07-24T16:36:23;4.63;;;4.10;;
77076;SDS011;66003;52.286;104.306;2023-07-24T16:38:50;5.03;;;3.55;;
77076;SDS011;66003;52.286;104.306;2023-07-24T16:41:17;3.63;;;2.42;;
77076;SDS011;66003;52.286;104.306;2023-07-24T16:43:43;7.32;;;3.80;;
77076;SDS011;66003;52.286;104.306;2023-07-24T16:46:09;7.75;;;4.93;;
77076;SDS011;66003;52.286;104.306;2023-07-24T16:48:36;6.07;;;3.47;;
77076;SDS011;66003;52.286;104.306;2023-07-24T16:51:02;7.95;;;4.07;;
77076;SDS011;66003;52.286;104.306;2023-07-24T16:53:29;4.45;;;2.90;;
77076;SDS011;66003;52.286;104.306;2023-07-24T16:55:55;3.90;;;1.73;;
77076;SDS011;66003;52.286;104.306;2023-07-24T16:58:22;4.95;;;2.58;;
77076;SDS011;66003;52.286;104.306;2023-07-24T17:00:48;3.03;;;2.72;;
77076;SDS011;66003;52.286;104.306;2023-07-24T17:03:14;4.53;;;2.03;;
77076;SDS011;66003;52.286;104.306;2023-07-24T17:05:40;2.85;;;1.95;;
77076;SDS011;66003;52.286;104.306;2023-07-24T17:10:42;5.88;;;4.43;;
77076;SDS011;66003;52.286;104.306;2023-07-24T17:13:12;2.80;;;1.80;;
77076;SDS011;66003;52.286;104.306;2023-07-24T17:15:39;2.20;;;1.25;;
77076;SDS011;66003;52.286;104.306;2023-07-24T17:18:07;3.50;;;1.58;;
77076;SDS011;66003;52.286;104.306;2023-07-24T17:20:33;2.97;;;1.40;;
77076;SDS011;66003;52.286;104.306;2023-07-24T17:22:59;3.10;;;2.28;;
77076;SDS011;66003;52.286;104.306;2023-07-24T17:25:26;2.50;;;1.15;;
77076;SDS011;66003;52.286;104.306;2023-07-24T17:27:53;4.30;;;2.90;;
77076;SDS011;66003;52.286;104.306;2023-07-24T17:30:19;4.57;;;1.92;;
77076;SDS011;66003;52.286;104.306;2023-07-24T17:35:11;3.28;;;1.50;;
77076;SDS011;66003;52.286;104.306;2023-07-24T17:37:38;3.20;;;1.48;;
77076;SDS011;66003;52.286;104.306;2023-07-24T17:40:06;3.20;;;1.75;;
77076;SDS011;66003;52.286;104.306;2023-07-24T17:42:34;2.53;;;1.33;;
77076;SDS011;66003;52.286;104.306;2023-07-24T17:45:02;3.90;;;2.22;;
77076;SDS011;66003;52.286;104.306;2023-07-24T17:47:33;4.68;;;1.27;;
77076;SDS011;66003;52.286;104.306;2023-07-24T17:49:59;3.22;;;1.75;;
77076;SDS011;66003;52.286;104.306;2023-07-24T17:52:26;3.88;;;1.77;;
77076;SDS011;66003;52.286;104.306;2023-07-24T17:54:52;4.00;;;1.98;;
77076;SDS011;66003;52.286;104.306;2023-07-24T17:57:18;5.38;;;2.15;;
77076;SDS011;66003;52.286;104.306;2023-07-24T17:59:44;3.50;;;1.65;;
77076;SDS011;66003;52.286;104.306;2023-07-24T18:02:10;3.72;;;1.83;;
77076;SDS011;66003;52.286;104.306;2023-07-24T18:04:36;4.55;;;2.28;;
77076;SDS011;66003;52.286;104.306;2023-07-24T18:07:03;3.95;;;2.05;;
77076;SDS011;66003;52.286;104.306;2023-07-24T18:09:29;6.97;;;1.75;;
77076;SDS011;66003;52.286;104.306;2023-07-24T18:11:55;3.20;;;1.63;;
77076;SDS011;66003;52.286;104.306;2023-07-24T18:14:21;4.57;;;2.80;;
77076;SDS011;66003;52.286;104.306;2023-07-24T18:16:48;6.00;;;2.42;;
77076;SDS011;66003;52.286;104.306;2023-07-24T18:19:15;4.28;;;2.85;;
77076;SDS011;66003;52.286;104.306;2023-07-24T18:21:42;3.15;;;1.90;;
77076;SDS011;66003;52.286;104.306;2023-07-24T18:26:34;4.68;;;2.10;;
77076;SDS011;66003;52.286;104.306;2023-07-24T18:29:01;5.10;;;2.47;;
77076;SDS011;66003;52.286;104.306;2023-07-24T18:31:29;5.30;;;2.10;;
77076;SDS011;66003;52.286;104.306;2023-07-24T18:33:56;3.35;;;1.60;;
77076;SDS011;66003;52.286;104.306;2023-07-24T18:36:22;5.45;;;1.83;;
77076;SDS011;66003;52.286;104.306;2023-07-24T18:38:49;7.53;;;3.25;;
77076;SDS011;66003;52.286;104.306;2023-07-24T18:41:15;4.03;;;2.38;;
77076;SDS011;66003;52.286;104.306;2023-07-24T18:43:41;3.15;;;1.83;;
77076;SDS011;66003;52.286;104.306;2023-07-24T18:46:07;4.70;;;2.17;;
77076;SDS011;66003;52.286;104.306;2023-07-24T18:48:33;3.53;;;2.13;;
77076;SDS011;66003;52.286;104.306;2023-07-24T18:51:01;4.28;;;2.33;;
77076;SDS011;66003;52.286;104.306;2023-07-24T18:53:28;3.33;;;1.65;;
77076;SDS011;66003;52.286;104.306;2023-07-24T18:55:55;4.32;;;2.17;;
77076;SDS011;66003;52.286;104.306;2023-07-24T18:58:23;2.90;;;1.73;;
77076;SDS011;66003;52.286;104.306;2023-07-24T19:00:50;4.45;;;2.30;;
77076;SDS011;66003;52.286;104.306;2023-07-24T19:03:16;4.70;;;4.28;;
77076;SDS011;66003;52.286;104.306;2023-07-24T19:05:42;5.68;;;2.20;;
77076;SDS011;66003;52.286;104.306;2023-07-24T19:08:09;4.45;;;2.08;;
77076;SDS011;66003;52.286;104.306;2023-07-24T19:10:35;4.93;;;2.83;;
77076;SDS011;66003;52.286;104.306;2023-07-24T19:13:01;4.55;;;2.85;;
77076;SDS011;66003;52.286;104.306;2023-07-24T19:15:27;3.75;;;2.35;;
77076;SDS011;66003;52.286;104.306;2023-07-24T19:17:53;6.38;;;2.72;;
77076;SDS011;66003;52.286;104.306;2023-07-24T19:20:19;5.22;;;2.83;;
77076;SDS011;66003;52.286;104.306;2023-07-24T19:22:45;4.35;;;2.70;;
77076;SDS011;66003;52.286;104.306;2023-07-24T19:25:12;4.03;;;3.30;;
77076;SDS011;66003;52.286;104.306;2023-07-24T19:27:38;4.63;;;4.10;;
77076;SDS011;66003;52.286;104.306;2023-07-24T19:30:04;6.50;;;2.70;;
77076;SDS011;66003;52.286;104.306;2023-07-24T19:32:41;4.28;;;2.33;;
77076;SDS011;66003;52.286;104.306;2023-07-24T19:35:07;6.00;;;2.35;;
77076;SDS011;66003;52.286;104.306;2023-07-24T19:37:34;4.43;;;2.60;;
77076;SDS011;66003;52.286;104.306;2023-07-24T19:40:00;5.78;;;2.88;;
77076;SDS011;66003;52.286;104.306;2023-07-24T19:42:29;6.45;;;4.32;;
77076;SDS011;66003;52.286;104.306;2023-07-24T19:44:55;4.93;;;3.40;;
77076;SDS011;66003;52.286;104.306;2023-07-24T19:47:21;3.90;;;2.75;;
77076;SDS011;66003;52.286;104.306;2023-07-24T19:49:47;5.20;;;2.22;;
77076;SDS011;66003;52.286;104.306;2023-07-24T19:52:13;4.25;;;3.10;;
77076;SDS011;66003;52.286;104.306;2023-07-24T19:54:39;4.20;;;3.20;;
77076;SDS011;66003;52.286;104.306;2023-07-24T19:57:05;4.18;;;2.05;;
77076;SDS011;66003;52.286;104.306;2023-07-24T20:01:57;3.42;;;2.00;;
77076;SDS011;66003;52.286;104.306;2023-07-24T20:04:24;4.65;;;1.88;;
77076;SDS011;66003;52.286;104.306;2023-07-24T20:06:50;3.85;;;2.15;;
77076;SDS011;66003;52.286;104.306;2023-07-24T20:11:43;2.83;;;1.10;;
77076;SDS011;66003;52.286;104.306;2023-07-24T20:14:09;3.35;;;2.03;;
77076;SDS011;66003;52.286;104.306;2023-07-24T20:16:36;3.92;;;1.65;;
77076;SDS011;66003;52.286;104.306;2023-07-24T20:19:02;4.10;;;1.75;;
77076;SDS011;66003;52.286;104.306;2023-07-24T20:21:28;4.15;;;2.28;;
77076;SDS011;66003;52.286;104.306;2023-07-24T20:26:31;5.85;;;2.00;;
77076;SDS011;66003;52.286;104.306;2023-07-24T20:28:58;2.95;;;1.35;;
77076;SDS011;66003;52.286;104.306;2023-07-24T20:31:24;3.97;;;2.50;;
77076;SDS011;66003;52.286;104.306;2023-07-24T20:33:51;5.78;;;2.75;;
77076;SDS011;66003;52.286;104.306;2023-07-24T20:36:17;3.92;;;2.50;;
77076;SDS011;66003;52.286;104.306;2023-07-24T20:38:44;4.60;;;2.47;;
77076;SDS011;66003;52.286;104.306;2023-07-24T20:41:10;4.10;;;2.33;;
77076;SDS011;66003;52.286;104.306;2023-07-24T20:43:39;3.90;;;2.20;;
77076;SDS011;66003;52.286;104.306;2023-07-24T20:46:09;3.63;;;2.13;;
77076;SDS011;66003;52.286;104.306;2023-07-24T20:48:39;4.85;;;2.95;;
77076;SDS011;66003;52.286;104.306;2023-07-24T20:51:18;3.88;;;1.95;;
77076;SDS011;66003;52.286;104.306;2023-07-24T20:53:46;5.65;;;2.90;;
77076;SDS011;66003;52.286;104.306;2023-07-24T20:56:13;4.53;;;3.08;;
77076;SDS011;66003;52.286;104.306;2023-07-24T20:58:39;6.50;;;2.60;;
77076;SDS011;66003;52.286;104.306;2023-07-24T21:01:06;5.65;;;2.70;;
77076;SDS011;66003;52.286;104.306;2023-07-24T21:03:35;6.10;;;3.30;;
77076;SDS011;66003;52.286;104.306;2023-07-24T21:06:01;7.50;;;3.45;;
77076;SDS011;66003;52.286;104.306;2023-07-24T21:08:28;7.70;;;4.15;;
77076;SDS011;66003;52.286;104.306;2023-07-24T21:10:54;5.53;;;3.22;;
77076;SDS011;66003;52.286;104.306;2023-07-24T21:15:47;4.53;;;2.72;;
77076;SDS011;66003;52.286;104.306;2023-07-24T21:18:15;7.70;;;3.65;;
77076;SDS011;66003;52.286;104.306;2023-07-24T21:20:42;4.03;;;2.22;;
77076;SDS011;66003;52.286;104.306;2023-07-24T21:25:34;3.17;;;2.30;;
77076;SDS011;66003;52.286;104.306;2023-07-24T21:28:00;3.20;;;2.78;;
77076;SDS011;66003;52.286;104.306;2023-07-24T21:30:26;4.35;;;2.80;;
77076;SDS011;66003;52.286;104.306;2023-07-24T21:32:52;7.80;;;2.95;;
77076;SDS011;66003;52.286;104.306;2023-07-24T21:35:19;6.20;;;3.10;;
77076;SDS011;66003;52.286;104.306;2023-07-24T21:37:45;4.35;;;2.25;;
77076;SDS011;66003;52.286;104.306;2023-07-24T21:40:11;4.88;;;2.75;;
77076;SDS011;66003;52.286;104.306;2023-07-24T21:42:37;3.88;;;2.95;;
77076;SDS011;66003;52.286;104.306;2023-07-24T21:45:03;7.90;;;3.10;;
77076;SDS011;66003;52.286;104.306;2023-07-24T21:47:32;3.88;;;2.35;;
77076;SDS011;66003;52.286;104.306;2023-07-24T21:52:24;4.53;;;2.08;;
77076;SDS011;66003;52.286;104.306;2023-07-24T21:54:50;4.70;;;2.47;;
77076;SDS011;66003;52.286;104.306;2023-07-24T21:59:42;3.75;;;2.30;;
77076;SDS011;66003;52.286;104.306;2023-07-24T22:02:08;4.93;;;2.20;;
77076;SDS011;66003;52.286;104.306;2023-07-24T22:04:34;3.05;;;1.75;;
77076;SDS011;66003;52.286;104.306;2023-07-24T22:07:00;6.28;;;2.58;;
77076;SDS011;66003;52.286;104.306;2023-07-24T22:09:26;3.20;;;2.42;;
77076;SDS011;66003;52.286;104.306;2023-07-24T22:11:53;7.65;;;3.22;;
77076;SDS011;66003;52.286;104.306;2023-07-24T22:14:19;3.70;;;2.80;;
77076;SDS011;66003;52.286;104.306;2023-07-24T22:16:45;3.95;;;2.45;;
77076;SDS011;66003;52.286;104.306;2023-07-24T22:19:11;7.03;;;2.40;;
77076;SDS011;66003;52.286;104.306;2023-07-24T22:21:37;5.63;;;2.33;;
77076;SDS011;66003;52.286;104.306;2023-07-24T22:24:03;5.70;;;2.28;;
77076;SDS011;66003;52.286;104.306;2023-07-24T22:28:55;4.95;;;2.35;;
77076;SDS011;66003;52.286;104.306;2023-07-24T22:31:21;4.70;;;2.63;;
77076;SDS011;66003;52.286;104.306;2023-07-24T22:33:47;3.53;;;2.63;;
77076;SDS011;66003;52.286;104.306;2023-07-24T22:36:14;4.88;;;3.03;;
77076;SDS011;66003;52.286;104.306;2023-07-24T22:38:40;6.60;;;3.85;;
77076;SDS011;66003;52.286;104.306;2023-07-24T22:41:09;5.22;;;2.70;;
77076;SDS011;66003;52.286;104.306;2023-07-24T22:43:39;7.82;;;3.58;;
77076;SDS011;66003;52.286;104.306;2023-07-24T22:46:05;6.55;;;3.70;;
77076;SDS011;66003;52.286;104.306;2023-07-24T22:48:31;7.93;;;4.00;;
77076;SDS011;66003;52.286;104.306;2023-07-24T22:50:57;9.80;;;4.00;;
77076;SDS011;66003;52.286;104.306;2023-07-24T22:53:23;6.72;;;4.05;;
77076;SDS011;66003;52.286;104.306;2023-07-24T22:55:50;5.78;;;4.03;;
77076;SDS011;66003;52.286;104.306;2023-07-24T22:58:16;5.22;;;4.57;;
77076;SDS011;66003;52.286;104.306;2023-07-24T23:00:42;7.85;;;4.75;;
77076;SDS011;66003;52.286;104.306;2023-07-24T23:05:35;7.57;;;5.38;;
77076;SDS011;66003;52.286;104.306;2023-07-24T23:08:01;8.32;;;5.60;;
77076;SDS011;66003;52.286;104.306;2023-07-24T23:12:53;10.55;;;5.85;;
77076;SDS011;66003;52.286;104.306;2023-07-24T23:17:45;9.73;;;6.00;;
77076;SDS011;66003;52.286;104.306;2023-07-24T23:20:12;11.23;;;5.88;;
77076;SDS011;66003;52.286;104.306;2023-07-24T23:22:38;10.77;;;6.05;;
77076;SDS011;66003;52.286;104.306;2023-07-24T23:25:04;10.40;;;5.32;;
77076;SDS011;66003;52.286;104.306;2023-07-24T23:27:31;8.32;;;4.82;;
77076;SDS011;66003;52.286;104.306;2023-07-24T23:29:57;7.22;;;5.35;;
77076;SDS011;66003;52.286;104.306;2023-07-24T23:32:23;6.75;;;5.25;;
77076;SDS011;66003;52.286;104.306;2023-07-24T23:34:49;9.20;;;6.00;;
77076;SDS011;66003;52.286;104.306;2023-07-24T23:37:15;7.20;;;5.88;;
77076;SDS011;66003;52.286;104.306;2023-07-24T23:39:41;13.35;;;5.63;;
77076;SDS011;66003;52.286;104.306;2023-07-24T23:42:07;8.00;;;5.18;;
77076;SDS011;66003;52.286;104.306;2023-07-24T23:44:33;8.88;;;7.10;;
77076;SDS011;66003;52.286;104.306;2023-07-24T23:46:59;7.97;;;4.72;;
77076;SDS011;66003;52.286;104.306;2023-07-24T23:49:26;9.95;;;8.48;;
77076;SDS011;66003;52.286;104.306;2023-07-24T23:51:52;8.02;;;5.05;;
77076;SDS011;66003;52.286;104.306;2023-07-24T23:54:18;8.55;;;5.25;;
77076;SDS011;66003;52.286;104.306;2023-07-24T23:56:44;6.75;;;4.60;;
77076;SDS011;66003;52.286;104.306;2023-07-24T23:59:10;9.57;;;4.60;;
